createdAt,value
2022-10-28T00:00:38.414Z,9.10
2022-10-28T00:03:11.104Z,11.83
2022-10-28T00:05:43.519Z,9.40
2022-10-28T00:08:17.284Z,10.48
2022-10-28T00:10:50.648Z,9.50
2022-10-28T00:13:23.320Z,8.98
2022-10-28T00:15:55.778Z,8.73
2022-10-28T00:18:30.780Z,9.65
2022-10-28T00:21:12.424Z,11.53
2022-10-28T00:23:46.140Z,10.05
2022-10-28T00:26:24.752Z,8.75
2022-10-28T00:28:59.755Z,8.95
2022-10-28T00:31:33.077Z,8.48
2022-10-28T00:34:07.150Z,11.18
2022-10-28T00:36:41.754Z,11.57
2022-10-28T00:39:20.029Z,8.85
2022-10-28T00:41:56.293Z,9.93
2022-10-28T00:44:57.125Z,11.65
2022-10-28T00:47:40.684Z,12.03
2022-10-28T00:50:23.483Z,10.13
2022-10-28T00:53:00.117Z,9.03
2022-10-28T00:55:32.588Z,9.45
2022-10-28T00:58:06.607Z,10.98
2022-10-28T01:00:39.177Z,12.82
2022-10-28T01:03:11.708Z,11.35
2022-10-28T01:05:47.652Z,12.70
2022-10-28T01:08:20.199Z,13.30
2022-10-28T01:11:36.616Z,10.50
2022-10-28T01:14:37.725Z,14.35
2022-10-28T01:17:41.826Z,13.15
2022-10-28T01:20:34.956Z,10.97
2022-10-28T01:23:19.396Z,11.80
2022-10-28T01:26:17.599Z,13.03
2022-10-28T01:29:12.492Z,10.78
2022-10-28T01:32:20.395Z,13.65
2022-10-28T01:35:17.115Z,12.88
2022-10-28T01:38:30.807Z,10.98
2022-10-28T01:41:16.223Z,13.18
2022-10-28T01:43:53.596Z,10.75
2022-10-28T01:46:30.131Z,11.68
2022-10-28T01:49:12.802Z,11.53
2022-10-28T01:51:49.033Z,10.18
2022-10-28T01:54:25.340Z,13.28
2022-10-28T01:56:57.781Z,14.00
2022-10-28T01:59:31.572Z,12.07
2022-10-28T02:02:04.185Z,9.48
2022-10-28T02:04:36.837Z,9.98
2022-10-28T02:07:09.259Z,11.40
2022-10-28T02:10:13.761Z,11.97
2022-10-28T02:12:46.197Z,13.20
2022-10-28T02:15:45.086Z,13.38
2022-10-28T02:18:56.889Z,12.53
2022-10-28T02:21:40.002Z,12.20
2022-10-28T02:24:22.955Z,11.55
2022-10-28T02:27:00.176Z,10.78
2022-10-28T02:29:44.985Z,13.30
2022-10-28T02:32:21.234Z,9.25
2022-10-28T02:34:56.537Z,12.53
2022-10-28T02:37:32.466Z,13.25
2022-10-28T02:40:07.982Z,13.18
2022-10-28T02:42:50.562Z,11.60
2022-10-28T02:45:28.174Z,15.00
2022-10-28T02:48:05.691Z,13.40
2022-10-28T02:50:41.145Z,11.68
2022-10-28T02:53:20.740Z,12.35
2022-10-28T02:55:55.973Z,12.13
2022-10-28T02:58:29.089Z,12.88
2022-10-28T03:01:01.859Z,15.88
2022-10-28T03:03:34.766Z,14.53
2022-10-28T03:06:07.399Z,14.38
2022-10-28T03:08:41.104Z,12.40
2022-10-28T03:11:14.912Z,12.15
2022-10-28T03:13:47.516Z,12.47
2022-10-28T03:16:20.041Z,11.97
2022-10-28T03:18:52.478Z,10.23
2022-10-28T03:21:26.586Z,13.70
2022-10-28T03:23:59.054Z,16.87
2022-10-28T03:26:31.567Z,12.10
2022-10-28T03:29:04.649Z,13.85
2022-10-28T03:31:38.112Z,13.03
2022-10-28T03:34:10.790Z,11.60
2022-10-28T03:36:43.473Z,13.62
2022-10-28T03:39:16.355Z,13.62
2022-10-28T03:41:49.027Z,15.30
2022-10-28T03:44:21.604Z,15.45
2022-10-28T03:46:54.666Z,12.68
2022-10-28T03:49:27.415Z,13.03
2022-10-28T03:51:59.921Z,13.10
2022-10-28T03:54:32.742Z,13.18
2022-10-28T03:57:05.081Z,14.93
2022-10-28T03:59:38.200Z,16.93
2022-10-28T04:02:10.758Z,16.52
2022-10-28T04:04:45.087Z,14.30
2022-10-28T04:07:17.420Z,12.13
2022-10-28T04:09:51.654Z,12.58
2022-10-28T04:12:24.582Z,12.07
2022-10-28T04:14:57.043Z,13.75
2022-10-28T04:17:30.310Z,15.32
2022-10-28T04:20:02.935Z,12.82
2022-10-28T04:22:35.621Z,12.80
2022-10-28T04:25:08.979Z,13.35
2022-10-28T04:27:41.397Z,11.05
2022-10-28T04:30:14.596Z,17.73
2022-10-28T04:32:47.236Z,15.38
2022-10-28T04:35:20.253Z,13.93
2022-10-28T04:37:53.015Z,17.40
2022-10-28T04:40:26.405Z,14.70
2022-10-28T04:42:59.079Z,14.50
2022-10-28T04:45:32.438Z,14.70
2022-10-28T04:48:05.350Z,14.30
2022-10-28T04:50:38.205Z,14.35
2022-10-28T04:53:13.842Z,12.15
2022-10-28T04:55:46.214Z,14.43
2022-10-28T04:58:19.798Z,22.48
2022-10-28T05:00:52.438Z,15.75
2022-10-28T05:03:24.925Z,19.00
2022-10-28T05:05:58.147Z,17.50
2022-10-28T05:08:30.881Z,17.02
2022-10-28T05:11:03.221Z,17.45
2022-10-28T05:13:36.354Z,21.02
2022-10-28T05:16:10.011Z,19.70
2022-10-28T05:18:42.658Z,21.05
2022-10-28T05:21:15.726Z,20.77
2022-10-28T05:23:49.176Z,19.67
2022-10-28T05:26:21.627Z,18.40
2022-10-28T05:28:54.614Z,17.52
2022-10-28T05:31:27.660Z,17.45
2022-10-28T05:34:01.159Z,14.93
2022-10-28T05:36:34.126Z,14.95
2022-10-28T05:39:06.831Z,18.10
2022-10-28T05:41:39.368Z,16.17
2022-10-28T05:44:11.849Z,15.88
2022-10-28T05:46:44.531Z,19.02
2022-10-28T05:49:19.128Z,20.40
2022-10-28T05:51:51.567Z,17.73
2022-10-28T05:54:24.909Z,18.02
2022-10-28T05:56:57.571Z,17.30
2022-10-28T05:59:30.318Z,22.82
2022-10-28T06:02:02.757Z,18.60
2022-10-28T06:04:35.483Z,16.07
2022-10-28T06:07:08.629Z,19.05
2022-10-28T06:09:41.148Z,22.77
2022-10-28T06:12:12.699Z,17.37
2022-10-28T06:14:45.864Z,15.60
2022-10-28T06:17:19.455Z,19.20
2022-10-28T06:19:52.450Z,21.48
2022-10-28T06:22:25.327Z,19.75
2022-10-28T06:24:57.733Z,22.13
2022-10-28T06:27:30.397Z,19.85
2022-10-28T06:30:03.488Z,20.23
2022-10-28T06:32:36.064Z,18.90
2022-10-28T06:35:08.863Z,19.15
2022-10-28T06:37:41.307Z,18.77
2022-10-28T06:40:13.651Z,19.90
2022-10-28T06:42:46.069Z,22.77
2022-10-28T06:45:18.979Z,27.67
2022-10-28T06:48:02.069Z,16.50
2022-10-28T06:50:35.435Z,24.80
2022-10-28T06:53:08.102Z,20.05
2022-10-28T06:55:40.803Z,18.90
2022-10-28T06:58:13.387Z,23.18
2022-10-28T07:00:45.932Z,18.75
2022-10-28T07:03:19.150Z,20.32
2022-10-28T07:05:52.142Z,26.37
2022-10-28T07:08:24.922Z,21.20
2022-10-28T07:10:59.908Z,24.57
2022-10-28T07:13:32.645Z,21.35
2022-10-28T07:16:07.344Z,26.42
2022-10-28T07:18:40.858Z,21.12
2022-10-28T07:21:14.523Z,23.07
2022-10-28T07:23:49.057Z,17.27
2022-10-28T07:26:21.737Z,20.82
2022-10-28T07:28:54.178Z,21.35
2022-10-28T07:31:28.182Z,26.90
2022-10-28T07:34:00.589Z,22.40
2022-10-28T07:36:33.359Z,21.90
2022-10-28T07:39:05.815Z,20.15
2022-10-28T07:41:39.356Z,21.73
2022-10-28T07:44:11.798Z,17.52
2022-10-28T07:46:45.358Z,20.75
2022-10-28T07:49:18.248Z,21.48
2022-10-28T07:51:52.384Z,21.27
2022-10-28T07:54:25.127Z,22.42
2022-10-28T07:56:57.753Z,18.27
2022-10-28T07:59:30.584Z,20.72
2022-10-28T08:02:03.634Z,19.75
2022-10-28T08:04:36.899Z,19.30
2022-10-28T08:07:11.042Z,23.12
2022-10-28T08:09:44.264Z,21.27
2022-10-28T08:12:17.108Z,21.48
2022-10-28T08:14:49.554Z,23.40
2022-10-28T08:17:23.567Z,18.62
2022-10-28T08:19:56.591Z,19.57
2022-10-28T08:22:29.025Z,23.07
2022-10-28T08:25:02.755Z,25.37
2022-10-28T08:27:35.450Z,23.27
2022-10-28T08:30:36.566Z,22.30
2022-10-28T08:33:03.834Z,22.93
2022-10-28T08:35:36.715Z,18.60
2022-10-28T08:38:29.212Z,20.27
2022-10-28T08:41:39.055Z,16.73
2022-10-28T08:45:00.149Z,17.70
2022-10-28T08:48:08.729Z,18.70
2022-10-28T09:16:47.828Z,13.68
2022-10-28T09:22:48.781Z,11.35
2022-10-28T09:25:40.369Z,9.50
2022-10-28T09:28:47.178Z,7.90
2022-10-28T09:31:53.659Z,5.00
2022-10-28T09:34:49.942Z,9.20
2022-10-28T09:37:35.804Z,4.40
2022-10-28T09:40:22.231Z,6.62
2022-10-28T09:43:23.634Z,3.08
2022-10-28T09:46:01.063Z,6.25
2022-10-28T09:48:42.470Z,2.87
2022-10-28T09:51:28.307Z,2.17
2022-10-28T09:54:19.612Z,1.95
2022-10-28T09:56:52.624Z,2.83
2022-10-28T09:59:25.242Z,3.77
2022-10-28T10:01:57.981Z,3.67
2022-10-28T10:04:35.924Z,8.30
2022-10-28T10:07:11.934Z,4.80
2022-10-28T10:09:46.154Z,6.67
2022-10-28T10:12:18.585Z,5.08
2022-10-28T10:15:13.738Z,8.95
2022-10-28T10:17:47.276Z,7.20
2022-10-28T10:20:22.110Z,5.80
2022-10-28T10:22:55.755Z,4.15
2022-10-28T10:25:31.280Z,3.80
2022-10-28T10:28:16.213Z,4.43
2022-10-28T10:30:52.523Z,4.12
2022-10-28T10:33:38.642Z,4.05
2022-10-28T10:36:15.936Z,3.58
2022-10-28T10:39:13.633Z,4.50
2022-10-28T10:41:47.886Z,4.45
2022-10-28T10:44:32.175Z,4.37
2022-10-28T10:47:10.526Z,4.80
2022-10-28T10:52:51.270Z,4.90
2022-10-28T10:55:31.019Z,3.95
2022-10-28T10:58:03.692Z,3.55
2022-10-28T11:00:39.193Z,10.55
2022-10-28T11:03:16.835Z,2.95
2022-10-28T11:06:18.365Z,3.72
2022-10-28T11:08:44.311Z,5.15
2022-10-28T11:11:22.577Z,3.83
2022-10-28T11:14:07.268Z,3.55
2022-10-28T11:16:56.434Z,3.45
2022-10-28T11:19:35.007Z,3.25
2022-10-28T11:22:15.684Z,2.75
2022-10-28T11:25:38.726Z,2.75
2022-10-28T11:28:40.099Z,3.87
2022-10-28T11:31:51.204Z,3.25
2022-10-28T11:34:46.838Z,3.62
2022-10-28T11:37:44.867Z,3.67
2022-10-28T11:40:53.956Z,3.12
2022-10-28T11:43:48.668Z,3.50
2022-10-28T11:47:08.690Z,5.95
2022-10-28T11:50:05.431Z,5.92
2022-10-28T11:52:57.625Z,4.33
2022-10-28T11:55:45.636Z,5.42
2022-10-28T11:58:46.663Z,2.80
2022-10-28T12:01:46.671Z,8.10
2022-10-28T12:05:06.638Z,3.20
2022-10-28T12:08:05.469Z,4.28
2022-10-28T12:11:15.880Z,4.12
2022-10-28T12:16:52.517Z,6.83
2022-10-28T12:19:49.982Z,5.15
2022-10-28T12:22:39.428Z,4.03
2022-10-28T12:25:34.437Z,3.15
2022-10-28T12:28:24.769Z,6.37
2022-10-28T12:30:57.574Z,3.60
2022-10-28T12:33:45.600Z,4.17
2022-10-28T12:36:37.770Z,6.72
2022-10-28T12:39:38.643Z,4.22
2022-10-28T12:42:33.547Z,9.85
2022-10-28T12:45:15.225Z,4.10
2022-10-28T12:48:18.244Z,5.30
2022-10-28T12:51:07.977Z,3.47
2022-10-28T12:54:12.117Z,7.35
2022-10-28T12:56:55.591Z,3.75
2022-10-28T12:59:38.279Z,7.40
2022-10-28T13:02:25.188Z,3.83
2022-10-28T13:04:58.977Z,3.27
2022-10-28T13:08:26.421Z,9.53
2022-10-28T13:11:41.921Z,7.42
2022-10-28T13:14:44.823Z,6.72
2022-10-28T13:17:50.379Z,4.78
2022-10-28T13:20:33.617Z,4.60
2022-10-28T13:23:35.045Z,8.95
2022-10-28T13:26:32.216Z,9.68
2022-10-28T13:29:07.550Z,5.55
2022-10-28T13:31:45.419Z,4.45
2022-10-28T13:34:20.272Z,6.17
2022-10-28T13:36:59.570Z,6.47
2022-10-28T13:39:45.179Z,5.37
2022-10-28T13:42:24.101Z,7.03
2022-10-28T13:45:04.089Z,9.80
2022-10-28T13:47:37.964Z,6.30
2022-10-28T13:50:16.764Z,9.55
2022-10-28T13:52:53.525Z,6.22
2022-10-28T13:55:43.146Z,6.87
2022-10-28T13:58:25.792Z,4.85
2022-10-28T14:00:58.371Z,7.42
2022-10-28T14:03:32.573Z,8.93
2022-10-28T14:06:05.317Z,6.30
2022-10-28T14:08:42.847Z,5.62
2022-10-28T14:11:24.446Z,6.72
2022-10-28T14:14:02.612Z,5.87
2022-10-28T14:16:44.209Z,14.83
2022-10-28T14:19:19.954Z,7.50
2022-10-28T14:22:06.193Z,5.25
2022-10-28T14:24:41.015Z,9.23
2022-10-28T14:27:36.538Z,7.22
2022-10-28T14:30:22.658Z,5.53
2022-10-28T14:33:21.919Z,8.43
2022-10-28T14:35:56.525Z,7.05
2022-10-28T14:41:33.147Z,8.83
2022-10-28T14:44:43.803Z,7.60
2022-10-28T14:47:39.632Z,9.25
2022-10-28T14:50:26.771Z,7.35
2022-10-28T14:52:59.159Z,11.83
2022-10-28T14:55:34.917Z,6.60
2022-10-28T14:58:30.042Z,9.25
2022-10-28T15:01:07.856Z,8.43
2022-10-28T15:03:41.094Z,8.05
2022-10-28T15:06:39.498Z,7.30
2022-10-28T15:09:25.577Z,10.05
2022-10-28T15:12:09.877Z,12.03
2022-10-28T15:14:45.448Z,8.68
2022-10-28T15:17:24.140Z,7.53
2022-10-28T15:20:00.398Z,8.98
2022-10-28T15:22:34.307Z,7.80
2022-10-28T15:25:16.250Z,9.03
2022-10-28T15:27:54.427Z,8.30
2022-10-28T15:30:27.825Z,11.30
2022-10-28T15:33:30.944Z,12.55
2022-10-28T15:36:27.973Z,11.63
2022-10-28T15:39:08.887Z,12.58
2022-10-28T15:41:43.724Z,12.98
2022-10-28T15:44:35.857Z,12.68
2022-10-28T15:47:32.098Z,10.45
2022-10-28T15:50:19.270Z,11.93
2022-10-28T15:52:57.468Z,11.55
2022-10-28T15:56:06.933Z,13.98
2022-10-28T15:58:30.235Z,13.25
2022-10-28T16:01:03.129Z,12.82
2022-10-28T16:03:45.958Z,12.28
2022-10-28T16:06:31.848Z,10.98
2022-10-28T16:09:09.455Z,13.68
2022-10-28T16:11:48.103Z,14.60
2022-10-28T16:14:39.452Z,15.00
2022-10-28T16:17:29.819Z,15.75
2022-10-28T16:20:21.980Z,14.18
2022-10-28T16:22:54.532Z,15.78
2022-10-28T16:25:28.925Z,13.35
2022-10-28T16:28:02.151Z,14.40
2022-10-28T16:30:34.916Z,14.35
2022-10-28T16:33:09.366Z,16.55
2022-10-28T16:35:42.294Z,15.38
2022-10-28T16:38:15.412Z,15.05
2022-10-28T16:40:52.001Z,19.15
2022-10-28T16:46:01.128Z,17.07
2022-10-28T16:48:33.860Z,15.60
2022-10-28T16:51:15.520Z,17.07
2022-10-28T16:53:50.390Z,15.28
2022-10-28T16:56:23.095Z,17.17
2022-10-28T16:58:56.759Z,17.27
2022-10-28T17:01:29.647Z,19.48
2022-10-28T17:04:04.036Z,17.77
2022-10-28T17:06:36.859Z,16.70
2022-10-28T17:09:19.469Z,19.05
2022-10-28T17:11:51.809Z,18.57
2022-10-28T17:14:24.861Z,18.00
2022-10-28T17:16:58.035Z,84.75
2022-10-28T17:19:31.194Z,22.25
2022-10-28T17:22:08.971Z,16.90
2022-10-28T17:24:40.217Z,16.27
2022-10-28T17:27:13.041Z,19.23
2022-10-28T17:29:45.823Z,17.48
2022-10-28T17:32:18.987Z,19.70
2022-10-28T17:34:52.449Z,19.37
2022-10-28T17:37:25.511Z,19.55
2022-10-28T17:39:58.049Z,25.23
2022-10-28T17:42:31.065Z,21.73
2022-10-28T17:45:03.818Z,18.20
2022-10-28T17:47:36.914Z,25.43
2022-10-28T17:50:11.097Z,21.82
2022-10-28T17:52:43.661Z,21.25
2022-10-28T17:55:16.733Z,21.97
2022-10-28T17:57:50.215Z,19.37
2022-10-28T18:00:22.722Z,22.58
2022-10-28T18:02:58.581Z,17.60
2022-10-28T18:05:31.134Z,19.15
2022-10-28T18:08:03.814Z,24.23
2022-10-28T18:10:36.409Z,20.68
2022-10-28T18:13:09.301Z,21.48
2022-10-28T18:15:41.924Z,20.35
2022-10-28T18:18:14.989Z,18.65
2022-10-28T18:20:55.674Z,18.77
